Time;durP1;ratioP1;P1;durP2;ratioP2;P2;SDS_P1;SDS_P2;PMS_P1;PMS_P2;Temp;Humidity;BMP_temperature;BMP_pressure;BME280_temperature;BME280_humidity;BME280_pressure;Samples;Min_cycle;Max_cycle;Signal;HPM_P1;HPM_P2
2022/09/01 00:01:42;;;;;;;3.53;2.80;;;20.90;69.40;;;;;;5043409;28;20021;-58
2022/09/01 00:04:10;;;;;;;3.28;2.50;;;20.90;69.50;;;;;;5051932;28;20036;-60
2022/09/01 00:06:39;;;;;;;4.45;2.38;;;20.90;69.60;;;;;;5052443;28;20485;-58
2022/09/01 00:09:10;;;;;;;2.92;2.25;;;20.90;69.60;;;;;;5051662;28;20037;-58
2022/09/01 00:11:36;;;;;;;2.75;2.40;;;20.90;69.70;;;;;;5046500;28;20029;-58
2022/09/01 00:14:03;;;;;;;2.80;2.28;;;20.90;69.70;;;;;;5046643;28;20609;-58
2022/09/01 00:16:29;;;;;;;4.07;2.60;;;20.90;69.70;;;;;;5050120;28;20044;-58
2022/09/01 00:18:56;;;;;;;2.50;2.15;;;20.80;69.60;;;;;;5050971;28;20029;-59
2022/09/01 00:21:26;;;;;;;3.50;2.40;;;20.80;69.70;;;;;;5050234;28;20033;-58
2022/09/01 00:23:52;;;;;;;2.07;1.80;;;20.80;69.60;;;;;;5051851;28;20025;-57
2022/09/01 00:26:18;;;;;;;2.47;2.20;;;20.80;69.60;;;;;;5051937;28;20032;-58
2022/09/01 00:28:44;;;;;;;3.47;2.50;;;20.80;69.70;;;;;;5050881;28;20036;-58
2022/09/01 00:31:10;;;;;;;2.92;2.30;;;20.80;69.80;;;;;;5050651;28;20435;-58
2022/09/01 00:33:37;;;;;;;3.25;2.58;;;20.80;69.90;;;;;;5052409;28;20094;-58
2022/09/01 00:36:04;;;;;;;2.95;2.40;;;20.70;69.70;;;;;;5055415;28;20380;-59
2022/09/01 00:38:30;;;;;;;4.05;2.53;;;20.70;69.70;;;;;;5051626;28;20024;-58
2022/09/01 00:40:55;;;;;;;2.65;2.30;;;20.70;69.80;;;;;;5051708;28;20036;-58
2022/09/01 00:43:44;;;;;;;2.47;2.25;;;20.70;69.70;;;;;;5050921;28;20478;-59
2022/09/01 00:46:17;;;;;;;2.83;2.33;;;20.60;69.80;;;;;;5050418;28;20091;-58
2022/09/01 00:48:43;;;;;;;2.50;2.10;;;20.70;69.80;;;;;;5051390;28;20028;-58
2022/09/01 00:51:11;;;;;;;2.95;2.50;;;20.60;69.80;;;;;;5051887;28;20021;-58
2022/09/01 00:53:39;;;;;;;2.55;2.10;;;20.60;69.80;;;;;;5051510;28;20459;-58
2022/09/01 00:56:07;;;;;;;2.95;2.28;;;20.60;69.90;;;;;;5049663;28;20088;-59
2022/09/01 00:58:34;;;;;;;3.42;2.58;;;20.50;69.90;;;;;;5050001;28;20021;-58
2022/09/01 01:01:01;;;;;;;2.67;2.40;;;20.60;70.00;;;;;;5030173;28;20055;-58
2022/09/01 01:03:29;;;;;;;2.55;2.35;;;20.50;70.10;;;;;;5051946;28;20029;-59
2022/09/01 01:06:00;;;;;;;2.47;2.25;;;20.50;70.10;;;;;;5051116;28;20039;-58
2022/09/01 01:08:34;;;;;;;2.75;2.10;;;20.50;70.00;;;;;;5051146;28;20032;-58
2022/09/01 01:11:07;;;;;;;2.45;2.10;;;20.40;70.10;;;;;;5051363;28;20067;-57
2022/09/01 01:13:49;;;;;;;1.98;1.77;;;20.40;70.10;;;;;;5051032;28;20124;-58
2022/09/01 01:16:16;;;;;;;1.95;1.85;;;20.40;70.10;;;;;;5050849;28;20029;-58
2022/09/01 01:18:42;;;;;;;2.20;2.00;;;20.40;70.00;;;;;;5051439;28;20441;-59
2022/09/01 01:24:24;;;;;;;2.58;2.20;;;20.40;70.10;;;;;;5045242;28;20163;-59
2022/09/01 01:26:51;;;;;;;1.90;1.73;;;20.40;70.10;;;;;;5046127;28;20458;-59
2022/09/01 01:29:17;;;;;;;3.47;2.35;;;20.40;70.10;;;;;;5050951;28;20032;-57
2022/09/01 01:31:43;;;;;;;3.25;2.10;;;20.30;70.00;;;;;;5049856;28;20045;-58
2022/09/01 01:34:09;;;;;;;2.40;2.20;;;20.30;70.20;;;;;;5051673;28;20037;-59
2022/09/01 01:36:37;;;;;;;2.42;2.20;;;20.30;70.20;;;;;;5049517;28;20041;-58
2022/09/01 01:39:11;;;;;;;3.40;2.65;;;20.30;70.30;;;;;;5051279;28;20128;-59
2022/09/01 01:41:44;;;;;;;3.70;2.50;;;20.30;70.50;;;;;;5051209;28;20385;-58
2022/09/01 01:44:12;;;;;;;2.47;2.28;;;20.20;70.50;;;;;;5051144;28;20036;-58
2022/09/01 01:46:41;;;;;;;2.13;1.98;;;20.20;70.50;;;;;;5052982;28;20064;-59
2022/09/01 01:49:10;;;;;;;2.33;2.00;;;20.20;70.50;;;;;;5053973;28;20110;-58
2022/09/01 01:51:36;;;;;;;2.58;2.17;;;20.10;70.60;;;;;;5054696;28;20079;-58
2022/09/01 01:54:04;;;;;;;5.05;2.33;;;20.10;70.60;;;;;;5050922;28;20033;-58
2022/09/01 01:56:31;;;;;;;2.03;1.92;;;20.10;70.70;;;;;;5054042;28;20025;-59
2022/09/01 01:58:58;;;;;;;2.78;2.45;;;20.10;70.80;;;;;;5041924;28;20100;-59
2022/09/01 02:01:27;;;;;;;2.22;2.03;;;20.10;71.60;;;;;;5054123;28;20083;-60
2022/09/01 02:03:55;;;;;;;2.70;2.40;;;20.00;70.90;;;;;;5053224;28;20075;-61
2022/09/01 02:06:23;;;;;;;3.30;2.50;;;20.00;70.90;;;;;;5053193;28;20038;-60
2022/09/01 02:08:51;;;;;;;3.03;2.38;;;20.00;71.00;;;;;;5054318;28;20131;-59
2022/09/01 02:11:18;;;;;;;2.33;2.13;;;20.00;71.00;;;;;;5052848;28;20065;-60
2022/09/01 02:13:45;;;;;;;2.65;2.30;;;19.90;71.10;;;;;;5053158;28;20036;-59
2022/09/01 02:16:12;;;;;;;2.40;2.00;;;19.90;71.00;;;;;;5053538;28;20434;-59
2022/09/01 02:18:41;;;;;;;2.40;2.20;;;19.90;71.10;;;;;;5053429;28;20487;-58
2022/09/01 02:21:09;;;;;;;1.95;1.85;;;19.90;71.20;;;;;;5053686;28;20021;-59
2022/09/01 02:23:37;;;;;;;2.85;2.35;;;19.80;71.10;;;;;;5054321;28;20025;-59
2022/09/01 02:26:05;;;;;;;2.60;2.15;;;19.80;71.20;;;;;;5053881;28;20115;-58
2022/09/01 02:28:35;;;;;;;2.45;2.17;;;19.70;71.10;;;;;;5059960;28;20035;-59
2022/09/01 02:31:02;;;;;;;2.28;2.05;;;19.70;71.10;;;;;;5052142;28;20029;-59
2022/09/01 02:33:30;;;;;;;4.40;2.38;;;19.70;71.20;;;;;;5053721;28;20034;-59
2022/09/01 02:36:01;;;;;;;2.83;2.50;;;19.60;71.30;;;;;;5046555;28;20098;-60
2022/09/01 02:38:28;;;;;;;3.40;2.22;;;19.60;71.30;;;;;;5053440;28;20480;-60
2022/09/01 02:40:57;;;;;;;2.25;2.00;;;19.60;71.50;;;;;;5053323;28;20165;-59
2022/09/01 02:43:27;;;;;;;3.67;2.50;;;19.50;71.40;;;;;;5053526;28;20033;-59
2022/09/01 02:45:56;;;;;;;2.25;2.08;;;19.50;71.50;;;;;;5052670;28;20025;-59
2022/09/01 02:48:31;;;;;;;3.25;2.30;;;19.50;71.60;;;;;;5040469;28;20035;-60
2022/09/01 02:50:58;;;;;;;3.08;2.30;;;19.50;71.70;;;;;;5053561;28;20350;-60
2022/09/01 02:53:24;;;;;;;2.35;1.98;;;19.50;71.80;;;;;;5053463;28;20248;-59
2022/09/01 02:55:50;;;;;;;2.58;2.38;;;19.50;71.80;;;;;;5053035;28;20104;-59
2022/09/01 02:58:18;;;;;;;2.55;2.03;;;19.50;71.90;;;;;;5053241;28;20448;-59
2022/09/01 03:00:45;;;;;;;2.63;2.00;;;19.50;71.90;;;;;;5052982;28;20037;-59
2022/09/01 03:03:18;;;;;;;2.83;2.40;;;19.50;71.90;;;;;;5053014;28;20017;-59
2022/09/01 03:05:44;;;;;;;1.70;1.60;;;19.50;72.00;;;;;;5052038;28;20039;-59
2022/09/01 03:08:14;;;;;;;2.97;2.10;;;19.50;72.10;;;;;;5052930;28;20025;-59
2022/09/01 03:10:42;;;;;;;2.75;2.30;;;19.50;72.10;;;;;;5053126;28;20036;-60
2022/09/01 03:13:16;;;;;;;3.28;2.30;;;19.50;72.10;;;;;;5052951;28;20040;-59
2022/09/01 03:15:42;;;;;;;2.17;1.98;;;19.50;72.20;;;;;;5051918;28;20025;-58
2022/09/01 03:18:09;;;;;;;2.28;2.05;;;19.50;72.20;;;;;;5047608;28;20025;-59
2022/09/01 03:20:38;;;;;;;2.60;2.40;;;19.50;72.30;;;;;;5042295;28;20365;-60
2022/09/01 03:23:07;;;;;;;3.60;2.58;;;19.50;72.20;;;;;;5051741;28;20029;-58
2022/09/01 03:25:35;;;;;;;2.13;1.92;;;19.50;72.30;;;;;;5052195;28;20411;-59
2022/09/01 03:28:02;;;;;;;2.10;1.90;;;19.50;72.20;;;;;;5050853;28;20028;-59
2022/09/01 03:30:33;;;;;;;2.20;2.00;;;19.50;72.20;;;;;;5051213;28;20041;-59
2022/09/01 03:33:00;;;;;;;2.17;1.98;;;19.50;72.20;;;;;;5045239;28;20028;-59
2022/09/01 03:35:27;;;;;;;2.83;2.03;;;19.60;72.40;;;;;;5048317;28;20025;-59
2022/09/01 03:37:56;;;;;;;2.30;2.10;;;19.60;72.30;;;;;;5044943;28;20033;-59
2022/09/01 03:40:22;;;;;;;2.42;2.22;;;19.60;72.30;;;;;;5052330;28;20013;-58
2022/09/01 03:42:48;;;;;;;2.38;2.10;;;19.60;72.30;;;;;;5052521;28;20087;-59
2022/09/01 03:45:14;;;;;;;2.22;2.03;;;19.60;72.20;;;;;;5051964;28;20096;-60
2022/09/01 03:47:42;;;;;;;2.67;1.98;;;19.60;72.30;;;;;;5043555;28;20037;-59
2022/09/01 03:50:19;;;;;;;3.42;2.30;;;19.60;72.30;;;;;;5052463;28;20079;-59
2022/09/01 03:52:54;;;;;;;2.83;2.25;;;19.60;72.30;;;;;;5051097;28;20389;-58
2022/09/01 03:55:25;;;;;;;2.20;2.00;;;19.70;72.30;;;;;;5051374;28;20032;-60
2022/09/01 03:57:56;;;;;;;2.30;2.10;;;19.70;72.30;;;;;;5047891;28;20009;-59
2022/09/01 04:00:24;;;;;;;2.42;1.88;;;19.70;72.40;;;;;;5052363;28;20511;-61
2022/09/01 04:02:55;;;;;;;2.67;2.10;;;19.70;72.30;;;;;;5052077;28;20017;-60
2022/09/01 04:05:23;;;;;;;3.42;2.42;;;19.80;72.30;;;;;;5050300;28;20489;-59
2022/09/01 04:07:50;;;;;;;2.28;2.08;;;19.80;72.20;;;;;;5047046;28;20029;-59
2022/09/01 04:10:18;;;;;;;2.67;2.13;;;19.80;72.20;;;;;;5051410;28;20365;-60
2022/09/01 04:12:44;;;;;;;2.25;2.05;;;19.80;72.10;;;;;;5051394;28;20063;-61
2022/09/01 04:15:12;;;;;;;2.10;1.90;;;19.80;72.10;;;;;;5045781;28;20945;-59
2022/09/01 04:20:23;;;;;;;2.00;1.80;;;19.80;72.00;;;;;;5051847;28;20036;-61
2022/09/01 04:22:50;;;;;;;2.40;2.13;;;19.90;72.10;;;;;;5051338;28;20017;-61
2022/09/01 04:25:21;;;;;;;2.42;2.05;;;19.90;71.90;;;;;;5053635;28;20029;-61
2022/09/01 04:27:48;;;;;;;2.50;2.30;;;19.90;71.80;;;;;;5051261;28;20094;-60
2022/09/01 04:30:14;;;;;;;2.22;2.03;;;19.90;71.90;;;;;;5064181;28;20036;-59
2022/09/01 04:32:40;;;;;;;3.25;2.28;;;19.90;71.70;;;;;;5050366;28;20037;-60
2022/09/01 04:35:07;;;;;;;3.25;2.38;;;19.90;71.70;;;;;;5051391;28;20104;-59
2022/09/01 04:37:36;;;;;;;1.90;1.70;;;19.90;71.60;;;;;;5048871;28;20039;-58
2022/09/01 04:40:03;;;;;;;2.28;1.90;;;19.90;71.50;;;;;;5051283;28;20025;-59
2022/09/01 04:42:31;;;;;;;1.88;1.77;;;19.90;71.40;;;;;;5045417;28;20044;-65
2022/09/01 04:44:59;;;;;;;2.38;1.60;;;19.90;71.40;;;;;;5051739;28;20055;-69
2022/09/01 04:47:29;;;;;;;2.22;2.03;;;20.00;71.30;;;;;;5032768;28;20061;-68
2022/09/01 04:50:00;;;;;;;2.10;1.95;;;20.00;71.20;;;;;;5031927;28;20162;-67
2022/09/01 04:52:26;;;;;;;2.08;1.92;;;20.10;71.10;;;;;;5050401;28;20037;-67
2022/09/01 04:54:53;;;;;;;2.30;2.10;;;20.10;71.10;;;;;;5032700;28;20029;-61
2022/09/01 04:57:22;;;;;;;2.17;1.98;;;20.20;71.00;;;;;;5051033;28;20083;-66
2022/09/01 04:59:47;;;;;;;2.60;2.05;;;20.30;70.90;;;;;;5041561;28;20941;-64
2022/09/01 05:02:14;;;;;;;2.25;2.00;;;20.30;70.70;;;;;;5046197;28;20025;-66
2022/09/01 05:04:45;;;;;;;2.20;2.00;;;20.40;70.60;;;;;;5044380;28;20052;-65
2022/09/01 05:07:14;;;;;;;2.88;2.30;;;20.40;70.40;;;;;;5045393;28;20027;-67
2022/09/01 05:09:40;;;;;;;2.40;2.03;;;20.40;70.40;;;;;;5044842;28;20100;-67
2022/09/01 05:12:14;;;;;;;2.90;2.30;;;20.40;70.50;;;;;;5044526;28;20117;-63
2022/09/01 05:14:42;;;;;;;2.92;2.38;;;20.50;70.50;;;;;;5046611;28;20036;-67
2022/09/01 05:17:11;;;;;;;2.58;2.05;;;20.60;70.70;;;;;;5039046;28;20017;-65
2022/09/01 05:19:39;;;;;;;2.55;2.25;;;20.90;71.00;;;;;;5052003;28;20032;-69
2022/09/01 05:22:09;;;;;;;3.05;2.42;;;21.30;70.30;;;;;;5048382;28;20025;-65
2022/09/01 05:24:35;;;;;;;2.50;1.80;;;21.60;69.50;;;;;;5053718;28;20098;-72
2022/09/01 05:27:06;;;;;;;2.38;2.10;;;21.80;68.70;;;;;;5054790;28;20029;-70
2022/09/01 05:29:35;;;;;;;;;;;21.90;68.20;;;;;;5056189;28;20033;-70
2022/09/01 05:32:07;;;;;;;2.90;2.25;;;21.90;67.90;;;;;;5053285;28;19912;-70
2022/09/01 05:34:36;;;;;;;1.80;1.70;;;22.00;68.40;;;;;;5045814;28;20039;-70
2022/09/01 05:37:01;;;;;;;2.08;1.90;;;22.00;67.90;;;;;;5048417;28;20061;-67
2022/09/01 05:39:28;;;;;;;2.38;2.08;;;21.90;67.80;;;;;;5045778;28;20118;-62
2022/09/01 05:41:54;;;;;;;2.15;1.95;;;21.90;67.80;;;;;;5044235;28;20381;-64
2022/09/01 05:44:21;;;;;;;2.88;2.28;;;21.90;67.60;;;;;;5048016;28;20036;-62
2022/09/01 05:46:48;;;;;;;3.25;2.63;;;21.90;67.60;;;;;;5042051;28;20075;-64
2022/09/01 05:49:17;;;;;;;2.50;2.15;;;21.80;67.50;;;;;;5039952;28;20447;-65
2022/09/01 05:51:48;;;;;;;2.15;1.95;;;21.80;67.60;;;;;;5046193;28;20067;-65
2022/09/01 05:54:15;;;;;;;2.20;2.00;;;21.80;67.80;;;;;;5039408;28;20036;-63
2022/09/01 05:56:43;;;;;;;2.10;1.90;;;21.80;68.20;;;;;;5043771;28;20063;-65
2022/09/01 05:59:10;;;;;;;1.67;1.58;;;21.80;68.10;;;;;;5048607;28;20036;-70
2022/09/01 06:01:39;;;;;;;2.08;1.80;;;21.80;68.00;;;;;;5037600;28;20511;-66
2022/09/01 06:04:07;;;;;;;1.70;1.60;;;21.80;68.00;;;;;;5045684;28;20029;-61
2022/09/01 06:06:45;;;;;;;2.25;1.77;;;21.90;68.20;;;;;;5039815;28;20043;-67
2022/09/01 06:09:12;;;;;;;2.03;1.83;;;21.90;67.80;;;;;;5046291;28;20026;-66
2022/09/01 06:11:41;;;;;;;2.40;2.08;;;22.00;67.80;;;;;;5047307;28;20028;-65
2022/09/01 06:14:08;;;;;;;1.60;1.50;;;22.00;67.60;;;;;;5039338;28;20025;-67
2022/09/01 06:16:34;;;;;;;1.75;1.60;;;22.10;67.60;;;;;;5025840;28;20032;-66
2022/09/01 06:19:00;;;;;;;1.92;1.75;;;22.10;67.40;;;;;;5025965;28;20436;-64
2022/09/01 06:21:27;;;;;;;1.85;1.75;;;22.10;67.40;;;;;;5041281;28;20412;-63
2022/09/01 06:23:55;;;;;;;2.05;1.83;;;22.10;67.20;;;;;;5040989;28;20037;-64
2022/09/01 06:26:27;;;;;;;1.30;1.30;;;22.10;67.40;;;;;;5041469;28;20032;-63
2022/09/01 06:28:55;;;;;;;1.52;1.42;;;22.10;67.20;;;;;;5037821;28;21063;-63
2022/09/01 06:31:25;;;;;;;2.00;1.80;;;22.10;67.30;;;;;;5042086;28;20024;-64
2022/09/01 06:33:53;;;;;;;2.60;1.97;;;22.10;67.20;;;;;;5041056;28;20029;-61
2022/09/01 06:36:22;;;;;;;2.42;1.98;;;22.10;67.30;;;;;;5037131;28;20055;-65
2022/09/01 06:38:52;;;;;;;1.95;1.80;;;22.10;67.20;;;;;;5035356;28;20047;-66
2022/09/01 06:41:20;;;;;;;1.63;1.52;;;22.10;67.30;;;;;;5039072;28;20057;-65
2022/09/01 06:43:48;;;;;;;2.10;1.90;;;22.10;67.30;;;;;;5020532;28;20037;-64
2022/09/01 06:46:15;;;;;;;1.75;1.45;;;22.10;67.20;;;;;;5031986;28;20547;-64
2022/09/01 06:48:45;;;;;;;2.15;1.65;;;22.10;67.90;;;;;;5042453;28;20040;-63
2022/09/01 06:51:13;;;;;;;1.77;1.63;;;22.10;67.30;;;;;;5043529;28;20488;-61
2022/09/01 06:53:40;;;;;;;2.05;1.85;;;22.10;67.50;;;;;;5041518;28;20072;-62
2022/09/01 06:56:09;;;;;;;1.55;1.45;;;22.10;67.20;;;;;;5035747;28;20045;-64
2022/09/01 06:58:36;;;;;;;1.73;1.40;;;22.20;67.20;;;;;;5036782;28;20056;-62
2022/09/01 07:01:07;;;;;;;1.63;1.50;;;22.20;67.20;;;;;;5032762;28;20024;-63
2022/09/01 07:03:33;;;;;;;1.60;1.50;;;22.20;67.80;;;;;;5026660;28;20037;-59
2022/09/01 07:05:59;;;;;;;1.65;1.55;;;22.30;67.00;;;;;;5028490;28;20052;-60
2022/09/01 07:08:25;;;;;;;1.70;1.60;;;22.30;66.60;;;;;;5028887;28;20443;-60
2022/09/01 07:10:52;;;;;;;1.60;1.38;;;22.40;66.40;;;;;;5026212;28;20106;-61
2022/09/01 07:13:24;;;;;;;1.60;1.50;;;22.40;66.30;;;;;;5025719;28;20028;-65
2022/09/01 07:15:52;;;;;;;1.77;1.65;;;22.40;66.20;;;;;;5027579;28;20021;-60
2022/09/01 07:18:25;;;;;;;1.60;1.50;;;22.50;65.90;;;;;;5009499;28;20054;-59
2022/09/01 07:20:53;;;;;;;1.23;1.13;;;22.60;65.60;;;;;;5027310;28;20040;-60
2022/09/01 07:23:19;;;;;;;1.10;1.00;;;22.60;64.60;;;;;;5027594;28;20025;-60
2022/09/01 07:25:47;;;;;;;1.67;1.40;;;22.60;63.90;;;;;;5022966;28;21086;-58
2022/09/01 07:28:16;;;;;;;1.08;1.05;;;22.60;63.20;;;;;;5019996;28;20041;-61
2022/09/01 07:30:47;;;;;;;0.98;0.98;;;22.70;62.90;;;;;;5023262;28;20089;-61
2022/09/01 07:33:15;;;;;;;1.30;1.20;;;22.70;62.60;;;;;;5026296;28;20029;-62
2022/09/01 07:35:41;;;;;;;1.42;1.33;;;22.70;62.50;;;;;;5021100;28;20034;-61
2022/09/01 07:38:08;;;;;;;1.17;1.08;;;22.70;62.20;;;;;;5022233;28;20072;-62
2022/09/01 07:40:39;;;;;;;1.25;1.15;;;22.70;62.30;;;;;;5019814;28;20044;-63
2022/09/01 07:43:14;;;;;;;1.50;1.30;;;22.70;62.50;;;;;;5025254;28;20893;-61
2022/09/01 07:45:46;;;;;;;1.50;1.30;;;22.80;62.40;;;;;;5023827;28;20029;-66
2022/09/01 07:48:13;;;;;;;1.13;0.93;;;22.70;62.00;;;;;;5026052;28;20064;-58
2022/09/01 07:50:46;;;;;;;1.50;1.20;;;22.70;61.90;;;;;;5024228;28;20052;-61
2022/09/01 07:53:17;;;;;;;2.05;1.25;;;22.70;61.80;;;;;;5019509;28;20033;-56
2022/09/01 07:55:45;;;;;;;1.23;1.00;;;22.70;61.50;;;;;;5017578;28;20033;-64
2022/09/01 07:58:12;;;;;;;0.90;0.90;;;22.70;61.00;;;;;;5018488;28;20481;-56
2022/09/01 08:00:40;;;;;;;1.48;1.10;;;22.70;60.40;;;;;;5018505;28;20040;-59
2022/09/01 08:03:05;;;;;;;1.30;1.00;;;22.70;60.30;;;;;;5018863;28;20024;-61
2022/09/01 08:05:32;;;;;;;0.90;0.90;;;22.60;60.10;;;;;;5019096;28;20689;-60
2022/09/01 08:07:58;;;;;;;1.20;1.10;;;22.60;60.00;;;;;;5019037;28;20115;-61
2022/09/01 08:10:24;;;;;;;0.95;0.95;;;22.60;60.00;;;;;;5013419;28;20053;-64
2022/09/01 08:12:51;;;;;;;2.08;1.42;;;22.60;59.80;;;;;;5013167;28;20079;-60
2022/09/01 08:15:17;;;;;;;1.25;1.10;;;22.60;59.70;;;;;;5022606;28;20029;-62
2022/09/01 08:17:44;;;;;;;1.33;1.23;;;22.60;59.60;;;;;;5018597;28;20549;-62
2022/09/01 08:20:10;;;;;;;1.48;1.20;;;22.60;59.40;;;;;;5014825;28;21450;-64
2022/09/01 08:22:37;;;;;;;1.20;1.20;;;22.50;59.40;;;;;;5015052;28;20080;-61
2022/09/01 08:25:07;;;;;;;1.08;1.00;;;22.50;59.30;;;;;;5019687;28;20040;-60
2022/09/01 08:27:40;;;;;;;0.75;0.75;;;22.50;59.00;;;;;;5016723;28;20045;-61
2022/09/01 08:30:08;;;;;;;1.60;1.10;;;22.50;59.70;;;;;;5012740;28;20037;-63
2022/09/01 08:32:35;;;;;;;0.82;0.82;;;22.50;59.20;;;;;;5019451;28;20908;-65
2022/09/01 08:35:03;;;;;;;1.00;1.00;;;22.60;59.00;;;;;;5025735;28;20164;-61
2022/09/01 08:37:28;;;;;;;0.50;0.50;;;22.60;58.10;;;;;;5017133;28;20049;-62
2022/09/01 08:39:54;;;;;;;1.08;0.98;;;22.50;57.90;;;;;;5013479;28;20084;-64
2022/09/01 08:42:20;;;;;;;0.80;0.80;;;22.50;57.60;;;;;;5013965;28;20437;-65
2022/09/01 08:45:10;;;;;;;0.73;0.73;;;22.60;57.70;;;;;;5016139;28;20120;-62
2022/09/01 08:47:37;;;;;;;0.70;0.70;;;22.60;57.50;;;;;;5022009;28;20029;-62
2022/09/01 08:50:04;;;;;;;0.95;0.80;;;22.60;57.60;;;;;;5018930;28;20518;-61
2022/09/01 08:52:37;;;;;;;1.13;0.90;;;22.60;57.40;;;;;;5022623;28;20029;-60
2022/09/01 08:55:20;;;;;;;0.98;0.98;;;22.70;57.00;;;;;;5028401;28;20032;-61
2022/09/01 08:57:50;;;;;;;1.05;0.90;;;22.70;56.90;;;;;;5021195;28;21079;-59
2022/09/01 09:00:18;;;;;;;1.10;1.00;;;22.70;56.70;;;;;;5022097;28;20037;-61
2022/09/01 09:02:57;;;;;;;1.95;0.98;;;22.70;56.60;;;;;;5022256;28;20144;-61
2022/09/01 09:05:32;;;;;;;1.45;1.10;;;22.80;57.00;;;;;;5021526;28;20033;-62
2022/09/01 09:08:16;;;;;;;0.85;0.80;;;22.80;56.10;;;;;;5012314;28;20028;-60
2022/09/01 09:10:48;;;;;;;0.90;0.90;;;22.80;56.00;;;;;;5027208;28;20024;-59
2022/09/01 09:13:38;;;;;;;1.52;0.88;;;22.70;55.90;;;;;;5020604;28;20158;-60
2022/09/01 09:16:17;;;;;;;0.70;0.70;;;22.80;55.90;;;;;;5023456;28;20029;-60
2022/09/01 09:18:47;;;;;;;0.80;0.70;;;22.80;55.80;;;;;;5028918;28;20596;-61
2022/09/01 09:21:18;;;;;;;0.70;0.70;;;22.80;55.80;;;;;;5022315;28;20469;-60
2022/09/01 09:23:47;;;;;;;1.10;1.00;;;22.90;55.50;;;;;;5020242;28;20040;-61
2022/09/01 09:26:12;;;;;;;0.70;0.70;;;22.90;55.50;;;;;;5022595;28;20060;-62
2022/09/01 09:28:39;;;;;;;0.73;0.73;;;22.90;55.40;;;;;;5021749;28;21075;-62
2022/09/01 09:31:31;;;;;;;1.00;0.85;;;23.00;55.30;;;;;;5023007;28;20023;-62
2022/09/01 09:33:57;;;;;;;0.90;0.85;;;23.00;55.00;;;;;;5022439;28;20029;-61
2022/09/01 09:36:30;;;;;;;0.75;0.75;;;23.10;54.90;;;;;;5015542;28;20021;-62
2022/09/01 09:39:11;;;;;;;0.95;0.93;;;23.10;54.60;;;;;;5019097;28;20078;-57
2022/09/01 09:41:39;;;;;;;2.50;1.35;;;23.20;54.30;;;;;;5020045;28;20025;-62
2022/09/01 09:44:29;;;;;;;1.25;1.17;;;23.20;54.40;;;;;;5014583;28;20048;-63
2022/09/01 09:46:56;;;;;;;1.52;1.38;;;23.20;54.20;;;;;;5028203;28;20033;-62
2022/09/01 09:49:24;;;;;;;1.05;0.95;;;23.20;54.50;;;;;;5019063;28;20186;-64
2022/09/01 09:51:56;;;;;;;1.10;1.00;;;23.20;54.40;;;;;;4998689;28;20511;-61
2022/09/01 09:54:27;;;;;;;0.98;0.88;;;23.20;54.30;;;;;;5014893;28;20090;-64
2022/09/01 09:57:05;;;;;;;0.80;0.80;;;23.20;54.30;;;;;;5021571;28;20843;-64
2022/09/01 09:59:37;;;;;;;1.10;0.93;;;23.20;54.00;;;;;;5015369;28;20033;-61
2022/09/01 10:02:31;;;;;;;1.00;1.00;;;23.20;54.00;;;;;;5021145;28;21240;-60
2022/09/01 10:04:58;;;;;;;0.90;0.90;;;23.20;53.90;;;;;;5005515;28;20576;-62
2022/09/01 10:07:31;;;;;;;1.73;0.80;;;23.20;54.00;;;;;;5017594;28;20041;-61
2022/09/01 10:10:00;;;;;;;0.82;0.82;;;23.20;53.90;;;;;;5018634;28;20052;-62
2022/09/01 10:12:28;;;;;;;1.30;0.57;;;23.20;53.80;;;;;;5023660;28;20031;-62
2022/09/01 10:15:06;;;;;;;0.85;0.85;;;23.20;53.60;;;;;;5001277;28;20112;-63
2022/09/01 10:17:43;;;;;;;1.00;1.00;;;23.20;53.60;;;;;;5022050;28;20035;-62
2022/09/01 10:20:19;;;;;;;1.00;0.77;;;23.20;53.40;;;;;;5014251;28;20163;-63
2022/09/01 10:22:45;;;;;;;0.65;0.65;;;23.10;53.30;;;;;;5024885;28;20111;-63
2022/09/01 10:25:24;;;;;;;0.90;0.90;;;23.10;53.50;;;;;;5027559;28;20025;-59
2022/09/01 10:28:16;;;;;;;1.42;1.20;;;23.00;53.40;;;;;;5002883;28;20045;-64
2022/09/01 10:30:45;;;;;;;0.93;0.93;;;22.90;53.10;;;;;;5024402;28;20098;-62
2022/09/01 10:33:14;;;;;;;1.52;1.27;;;22.90;53.30;;;;;;5028882;28;20383;-63
2022/09/01 10:35:45;;;;;;;0.85;0.85;;;22.80;53.00;;;;;;5021302;28;20028;-62
2022/09/01 10:38:21;;;;;;;0.88;0.88;;;22.70;53.20;;;;;;5031164;28;20115;-64
2022/09/01 10:41:05;;;;;;;0.70;0.70;;;22.70;53.20;;;;;;5024470;28;20033;-60
2022/09/01 10:43:48;;;;;;;1.20;0.82;;;22.60;53.10;;;;;;5004523;28;20032;-62
2022/09/01 10:46:37;;;;;;;0.73;0.73;;;22.60;53.00;;;;;;5016201;28;20039;-63
2022/09/01 10:49:27;;;;;;;0.60;0.60;;;22.50;52.70;;;;;;5023647;28;20028;-61
2022/09/01 10:51:54;;;;;;;0.60;0.60;;;22.50;52.80;;;;;;5021081;28;20037;-64
2022/09/01 10:54:38;;;;;;;0.70;0.70;;;22.50;53.00;;;;;;5021087;28;20037;-59
2022/09/01 10:57:40;;;;;;;0.60;0.60;;;22.50;52.70;;;;;;5022346;28;20029;-58
2022/09/01 11:00:18;;;;;;;0.85;0.75;;;22.40;52.60;;;;;;5023076;28;20032;-60
2022/09/01 11:03:12;;;;;;;0.85;0.82;;;22.40;52.90;;;;;;5019423;28;20020;-62
2022/09/01 11:06:04;;;;;;;0.55;0.55;;;22.40;52.50;;;;;;5025667;28;20067;-65
2022/09/01 11:08:29;;;;;;;0.73;0.73;;;22.40;52.60;;;;;;5018788;28;20025;-59
2022/09/01 11:11:06;;;;;;;0.52;0.52;;;22.40;52.60;;;;;;5018671;28;20668;-65
2022/09/01 11:13:55;;;;;;;0.70;0.70;;;22.40;52.50;;;;;;5004303;28;20777;-61
2022/09/01 11:16:29;;;;;;;0.82;0.82;;;22.30;52.20;;;;;;5003478;28;20075;-63
2022/09/01 11:19:16;;;;;;;0.60;0.60;;;22.30;52.30;;;;;;5021363;28;20467;-60
2022/09/01 11:21:42;;;;;;;0.75;0.75;;;22.30;52.40;;;;;;5015427;28;20086;-62
2022/09/01 11:24:41;;;;;;;0.73;0.73;;;22.20;52.20;;;;;;5022692;28;20800;-59
2022/09/01 11:27:09;;;;;;;0.70;0.70;;;22.20;52.20;;;;;;5018725;28;20205;-67
2022/09/01 11:29:56;;;;;;;1.00;0.68;;;22.30;52.20;;;;;;5003509;28;20043;-60
2022/09/01 11:32:30;;;;;;;0.70;0.70;;;22.20;51.90;;;;;;5016747;28;20711;-57
2022/09/01 11:34:57;;;;;;;0.60;0.60;;;22.30;52.20;;;;;;5019609;28;20034;-65
2022/09/01 11:37:24;;;;;;;1.33;1.13;;;22.30;52.10;;;;;;5004413;28;20045;-63
2022/09/01 11:39:58;;;;;;;1.67;1.08;;;22.30;52.30;;;;;;5003710;28;20411;-61
2022/09/01 11:42:41;;;;;;;0.60;0.60;;;22.30;52.00;;;;;;5002768;28;20026;-62
2022/09/01 11:45:18;;;;;;;1.02;0.77;;;22.30;52.00;;;;;;4996639;28;20033;-62
2022/09/01 11:47:53;;;;;;;0.90;0.80;;;22.30;51.60;;;;;;4997769;28;22747;-61
2022/09/01 11:50:24;;;;;;;1.15;0.93;;;22.20;51.60;;;;;;4995563;28;20026;-59
2022/09/01 11:52:55;;;;;;;;;;;22.20;51.70;;;;;;5000852;28;20037;-64
2022/09/01 11:55:31;;;;;;;0.75;0.75;;;22.10;51.20;;;;;;5004005;28;19936;-60
2022/09/01 11:57:57;;;;;;;0.70;0.70;;;22.20;51.50;;;;;;5000529;28;20345;-61
2022/09/01 12:00:37;;;;;;;1.58;0.95;;;22.20;51.50;;;;;;5000916;28;20025;-55
2022/09/01 12:03:20;;;;;;;1.15;1.02;;;22.10;51.30;;;;;;5001196;28;20038;-64
2022/09/01 12:05:49;;;;;;;1.13;1.02;;;22.10;51.40;;;;;;4996754;28;20025;-58
2022/09/01 12:08:18;;;;;;;1.05;0.95;;;22.20;51.40;;;;;;5001922;28;20096;-63
2022/09/01 12:10:44;;;;;;;0.50;0.50;;;22.20;51.30;;;;;;4997664;28;20041;-63
2022/09/01 12:13:22;;;;;;;0.88;0.88;;;22.20;51.30;;;;;;5004014;28;20564;-61
2022/09/01 12:15:59;;;;;;;0.95;0.95;;;22.20;51.30;;;;;;4988369;28;20049;-60
2022/09/01 12:18:28;;;;;;;1.55;0.88;;;22.20;51.10;;;;;;5004337;28;20018;-64
2022/09/01 12:20:57;;;;;;;0.80;0.80;;;22.20;51.30;;;;;;5006512;28;20091;-63
2022/09/01 12:23:27;;;;;;;0.70;0.70;;;22.20;51.20;;;;;;4991572;28;20044;-60
2022/09/01 12:25:55;;;;;;;0.60;0.60;;;22.20;51.40;;;;;;5001162;28;20124;-62
2022/09/01 12:28:26;;;;;;;0.57;0.57;;;22.30;51.30;;;;;;4999581;28;20333;-54
2022/09/01 12:30:54;;;;;;;0.70;0.70;;;22.30;51.40;;;;;;4992088;28;20209;-61
2022/09/01 12:33:20;;;;;;;0.77;0.77;;;22.40;51.50;;;;;;5004622;28;20397;-64
2022/09/01 12:35:46;;;;;;;0.73;0.73;;;22.40;51.40;;;;;;4998989;28;20037;-60
2022/09/01 12:38:18;;;;;;;0.77;0.77;;;22.50;51.20;;;;;;5022264;28;20041;-63
2022/09/01 12:40:44;;;;;;;0.70;0.70;;;22.50;51.10;;;;;;5015287;28;20519;-60
2022/09/01 12:43:11;;;;;;;0.73;0.68;;;22.60;51.20;;;;;;5016952;28;20641;-64
2022/09/01 12:45:44;;;;;;;0.88;0.88;;;22.70;51.80;;;;;;5016536;28;20945;-60
2022/09/01 12:48:29;;;;;;;0.93;0.80;;;22.80;51.00;;;;;;5010147;28;20222;-61
2022/09/01 12:50:58;;;;;;;0.70;0.70;;;22.80;50.70;;;;;;5016951;28;20826;-61
2022/09/01 12:53:27;;;;;;;1.08;1.05;;;22.80;50.70;;;;;;5020624;28;20694;-65
2022/09/01 12:56:00;;;;;;;1.00;1.00;;;22.90;50.70;;;;;;5011783;28;20126;-58
2022/09/01 12:58:28;;;;;;;0.73;0.73;;;22.90;50.20;;;;;;5013943;28;20017;-61
2022/09/01 13:01:07;;;;;;;0.68;0.68;;;22.90;50.20;;;;;;5015763;28;20033;-62
2022/09/01 13:03:34;;;;;;;1.23;0.95;;;22.90;50.20;;;;;;5014016;28;20041;-56
2022/09/01 13:06:01;;;;;;;0.60;0.60;;;22.90;50.00;;;;;;4995777;28;20064;-61
2022/09/01 13:08:31;;;;;;;0.60;0.60;;;23.00;50.20;;;;;;5022073;28;20118;-64
2022/09/01 13:11:17;;;;;;;1.55;0.93;;;23.00;50.30;;;;;;5024635;28;20631;-61